sensor_id;sensor_type;location;lat;lon;timestamp;pressure;altitude;pressure_sealevel;temperature;humidity
11343;BME280;5726;42.160;24.746;2023-05-20T00:02:07;99769.25;;;16.85;100.00
11343;BME280;5726;42.160;24.746;2023-05-20T00:04:32;99767.31;;;16.86;100.00
11343;BME280;5726;42.160;24.746;2023-05-20T00:06:58;99758.53;;;16.97;100.00
11343;BME280;5726;42.160;24.746;2023-05-20T00:09:23;99762.69;;;16.86;100.00
11343;BME280;5726;42.160;24.746;2023-05-20T00:11:49;99763.97;;;16.80;100.00
11343;BME280;5726;42.160;24.746;2023-05-20T00:14:14;99764.41;;;16.99;100.00
11343;BME280;5726;42.160;24.746;2023-05-20T00:16:40;99769.38;;;16.89;100.00
11343;BME280;5726;42.160;24.746;2023-05-20T00:19:06;99768.72;;;17.00;100.00
11343;BME280;5726;42.160;24.746;2023-05-20T00:21:31;99766.16;;;16.95;100.00
11343;BME280;5726;42.160;24.746;2023-05-20T00:23:58;99765.38;;;16.95;100.00
11343;BME280;5726;42.160;24.746;2023-05-20T00:26:24;99763.88;;;17.14;100.00
11343;BME280;5726;42.160;24.746;2023-05-20T00:28:50;99759.56;;;17.30;100.00
11343;BME280;5726;42.160;24.746;2023-05-20T00:31:16;99758.72;;;17.38;100.00
11343;BME280;5726;42.160;24.746;2023-05-20T00:33:41;99761.97;;;17.23;100.00
11343;BME280;5726;42.160;24.746;2023-05-20T00:36:07;99758.81;;;17.21;100.00
11343;BME280;5726;42.160;24.746;2023-05-20T00:38:32;99753.50;;;17.16;100.00
11343;BME280;5726;42.160;24.746;2023-05-20T00:40:58;99762.91;;;17.27;100.00
11343;BME280;5726;42.160;24.746;2023-05-20T00:43:24;99762.91;;;17.27;100.00
11343;BME280;5726;42.160;24.746;2023-05-20T00:45:52;99756.09;;;17.21;100.00
11343;BME280;5726;42.160;24.746;2023-05-20T00:48:18;99761.22;;;17.43;100.00
11343;BME280;5726;42.160;24.746;2023-05-20T00:50:45;99752.06;;;17.19;100.00
11343;BME280;5726;42.160;24.746;2023-05-20T00:53:11;99754.31;;;17.25;100.00
11343;BME280;5726;42.160;24.746;2023-05-20T00:55:37;99760.34;;;17.30;100.00
11343;BME280;5726;42.160;24.746;2023-05-20T00:58:02;99750.16;;;17.19;100.00
11343;BME280;5726;42.160;24.746;2023-05-20T01:00:28;99750.00;;;17.16;100.00
11343;BME280;5726;42.160;24.746;2023-05-20T01:02:54;99745.75;;;17.06;100.00
11343;BME280;5726;42.160;24.746;2023-05-20T01:05:20;99745.97;;;16.93;100.00
11343;BME280;5726;42.160;24.746;2023-05-20T01:07:46;99737.97;;;16.96;100.00
11343;BME280;5726;42.160;24.746;2023-05-20T01:10:11;99734.31;;;16.92;100.00
11343;BME280;5726;42.160;24.746;2023-05-20T01:12:48;99738.19;;;16.74;100.00
11343;BME280;5726;42.160;24.746;2023-05-20T01:15:16;99732.13;;;16.77;100.00
11343;BME280;5726;42.160;24.746;2023-05-20T01:17:46;99736.66;;;16.57;100.00
11343;BME280;5726;42.160;24.746;2023-05-20T01:20:15;99738.97;;;16.83;100.00
11343;BME280;5726;42.160;24.746;2023-05-20T01:22:53;99730.31;;;16.53;100.00
11343;BME280;5726;42.160;24.746;2023-05-20T01:25:19;99731.53;;;16.72;100.00
11343;BME280;5726;42.160;24.746;2023-05-20T01:27:45;99729.16;;;16.71;100.00
11343;BME280;5726;42.160;24.746;2023-05-20T01:30:11;99737.16;;;16.50;100.00
11343;BME280;5726;42.160;24.746;2023-05-20T01:32:40;99737.47;;;16.40;100.00
11343;BME280;5726;42.160;24.746;2023-05-20T01:35:07;99738.09;;;16.21;100.00
11343;BME280;5726;42.160;24.746;2023-05-20T01:37:35;99741.31;;;16.23;100.00
11343;BME280;5726;42.160;24.746;2023-05-20T01:40:03;99739.22;;;16.11;100.00
11343;BME280;5726;42.160;24.746;2023-05-20T01:42:29;99736.03;;;16.09;100.00
11343;BME280;5726;42.160;24.746;2023-05-20T01:44:55;99735.09;;;16.05;100.00
11343;BME280;5726;42.160;24.746;2023-05-20T01:47:20;99728.53;;;16.06;100.00
11343;BME280;5726;42.160;24.746;2023-05-20T01:49:46;99726.00;;;15.93;100.00
11343;BME280;5726;42.160;24.746;2023-05-20T01:52:12;99735.25;;;16.17;100.00
11343;BME280;5726;42.160;24.746;2023-05-20T01:54:37;99734.44;;;16.17;100.00
11343;BME280;5726;42.160;24.746;2023-05-20T01:57:03;99730.63;;;16.34;100.00
11343;BME280;5726;42.160;24.746;2023-05-20T01:59:28;99726.03;;;16.10;100.00
11343;BME280;5726;42.160;24.746;2023-05-20T02:01:54;99727.13;;;16.17;100.00
11343;BME280;5726;42.160;24.746;2023-05-20T02:04:19;99720.75;;;16.13;100.00
11343;BME280;5726;42.160;24.746;2023-05-20T02:06:46;99720.13;;;16.16;100.00
11343;BME280;5726;42.160;24.746;2023-05-20T02:09:12;99704.53;;;15.79;100.00
11343;BME280;5726;42.160;24.746;2023-05-20T02:11:38;99708.44;;;15.48;100.00
11343;BME280;5726;42.160;24.746;2023-05-20T02:14:03;99694.66;;;15.67;100.00
11343;BME280;5726;42.160;24.746;2023-05-20T02:16:28;99701.34;;;15.61;100.00
11343;BME280;5726;42.160;24.746;2023-05-20T02:18:54;99702.72;;;15.33;100.00
11343;BME280;5726;42.160;24.746;2023-05-20T02:21:20;99695.53;;;15.29;100.00
11343;BME280;5726;42.160;24.746;2023-05-20T02:23:45;99686.84;;;15.40;100.00
11343;BME280;5726;42.160;24.746;2023-05-20T02:26:11;99693.63;;;15.29;100.00
11343;BME280;5726;42.160;24.746;2023-05-20T02:28:36;99692.94;;;15.15;100.00
11343;BME280;5726;42.160;24.746;2023-05-20T02:31:09;99703.19;;;15.35;100.00
11343;BME280;5726;42.160;24.746;2023-05-20T02:33:34;99703.25;;;15.52;100.00
11343;BME280;5726;42.160;24.746;2023-05-20T02:35:59;99701.16;;;15.49;100.00
11343;BME280;5726;42.160;24.746;2023-05-20T02:38:25;99708.78;;;15.55;100.00
11343;BME280;5726;42.160;24.746;2023-05-20T02:40:50;99702.91;;;15.45;100.00
11343;BME280;5726;42.160;24.746;2023-05-20T02:43:16;99700.69;;;15.55;100.00
11343;BME280;5726;42.160;24.746;2023-05-20T02:45:41;99697.66;;;15.40;100.00
11343;BME280;5726;42.160;24.746;2023-05-20T02:48:07;99694.94;;;15.40;100.00
11343;BME280;5726;42.160;24.746;2023-05-20T02:50:32;99696.69;;;15.36;100.00
11343;BME280;5726;42.160;24.746;2023-05-20T02:52:57;99696.25;;;15.04;100.00
11343;BME280;5726;42.160;24.746;2023-05-20T02:55:23;99704.47;;;14.99;100.00
11343;BME280;5726;42.160;24.746;2023-05-20T02:57:48;99699.22;;;15.32;100.00
11343;BME280;5726;42.160;24.746;2023-05-20T03:00:14;99709.25;;;15.02;100.00
11343;BME280;5726;42.160;24.746;2023-05-20T03:02:40;99704.50;;;15.46;100.00
11343;BME280;5726;42.160;24.746;2023-05-20T03:05:06;99707.34;;;15.49;100.00
11343;BME280;5726;42.160;24.746;2023-05-20T03:07:35;99710.56;;;15.60;100.00
11343;BME280;5726;42.160;24.746;2023-05-20T03:10:00;99711.00;;;15.45;100.00
11343;BME280;5726;42.160;24.746;2023-05-20T03:12:27;99714.22;;;15.64;100.00
11343;BME280;5726;42.160;24.746;2023-05-20T03:14:52;99714.34;;;15.50;100.00
11343;BME280;5726;42.160;24.746;2023-05-20T03:17:22;99714.34;;;15.59;100.00
11343;BME280;5726;42.160;24.746;2023-05-20T03:19:47;99720.72;;;15.46;100.00
11343;BME280;5726;42.160;24.746;2023-05-20T03:22:13;99715.63;;;15.44;100.00
11343;BME280;5726;42.160;24.746;2023-05-20T03:24:38;99722.97;;;15.61;100.00
11343;BME280;5726;42.160;24.746;2023-05-20T03:27:05;99735.84;;;15.72;100.00
11343;BME280;5726;42.160;24.746;2023-05-20T03:29:31;99751.91;;;15.85;100.00
11343;BME280;5726;42.160;24.746;2023-05-20T03:31:57;99754.31;;;16.12;100.00
11343;BME280;5726;42.160;24.746;2023-05-20T03:34:23;99764.56;;;16.24;100.00
11343;BME280;5726;42.160;24.746;2023-05-20T03:36:50;99762.13;;;16.05;100.00
11343;BME280;5726;42.160;24.746;2023-05-20T03:39:16;99778.66;;;15.78;100.00
11343;BME280;5726;42.160;24.746;2023-05-20T03:41:41;99784.06;;;15.95;100.00
11343;BME280;5726;42.160;24.746;2023-05-20T03:44:07;99784.91;;;16.13;100.00
11343;BME280;5726;42.160;24.746;2023-05-20T03:46:32;99789.03;;;16.19;100.00
11343;BME280;5726;42.160;24.746;2023-05-20T03:48:58;99791.09;;;16.13;100.00
11343;BME280;5726;42.160;24.746;2023-05-20T03:51:26;99783.00;;;16.47;100.00
11343;BME280;5726;42.160;24.746;2023-05-20T03:53:52;99774.53;;;16.74;100.00
11343;BME280;5726;42.160;24.746;2023-05-20T03:56:17;99767.78;;;16.96;100.00
11343;BME280;5726;42.160;24.746;2023-05-20T03:58:43;99775.75;;;17.38;100.00
11343;BME280;5726;42.160;24.746;2023-05-20T04:01:08;99784.28;;;17.86;97.43
11343;BME280;5726;42.160;24.746;2023-05-20T04:03:39;99773.66;;;17.44;99.33
11343;BME280;5726;42.160;24.746;2023-05-20T04:06:06;99771.47;;;17.37;100.00
11343;BME280;5726;42.160;24.746;2023-05-20T04:08:31;99770.31;;;17.47;99.55
11343;BME280;5726;42.160;24.746;2023-05-20T04:10:58;99769.66;;;17.50;99.12
11343;BME280;5726;42.160;24.746;2023-05-20T04:13:24;99779.56;;;17.74;98.25
11343;BME280;5726;42.160;24.746;2023-05-20T04:15:50;99782.63;;;17.93;96.87
11343;BME280;5726;42.160;24.746;2023-05-20T04:18:17;99780.56;;;17.90;96.01
11343;BME280;5726;42.160;24.746;2023-05-20T04:20:43;99778.66;;;18.11;94.87
11343;BME280;5726;42.160;24.746;2023-05-20T04:23:09;99783.41;;;18.43;95.02
11343;BME280;5726;42.160;24.746;2023-05-20T04:25:34;99784.56;;;18.54;92.37
11343;BME280;5726;42.160;24.746;2023-05-20T04:28:00;99779.97;;;18.66;91.25
11343;BME280;5726;42.160;24.746;2023-05-20T04:30:25;99780.94;;;18.50;91.77
11343;BME280;5726;42.160;24.746;2023-05-20T04:32:52;99769.16;;;18.46;91.70
11343;BME280;5726;42.160;24.746;2023-05-20T04:35:18;99773.81;;;18.25;91.97
11343;BME280;5726;42.160;24.746;2023-05-20T04:37:43;99768.19;;;17.81;93.75
11343;BME280;5726;42.160;24.746;2023-05-20T04:40:12;99761.88;;;17.40;97.61
11343;BME280;5726;42.160;24.746;2023-05-20T04:42:38;99767.19;;;17.28;98.63
11343;BME280;5726;42.160;24.746;2023-05-20T04:45:04;99772.72;;;17.40;97.35
11343;BME280;5726;42.160;24.746;2023-05-20T04:47:30;99780.09;;;17.31;99.23
11343;BME280;5726;42.160;24.746;2023-05-20T04:50:03;99784.69;;;17.96;98.00
11343;BME280;5726;42.160;24.746;2023-05-20T04:52:29;99783.34;;;18.31;96.50
11343;BME280;5726;42.160;24.746;2023-05-20T04:54:55;99792.31;;;18.64;95.57
11343;BME280;5726;42.160;24.746;2023-05-20T04:57:22;99781.16;;;19.21;90.17
11343;BME280;5726;42.160;24.746;2023-05-20T04:59:48;99793.34;;;19.03;91.79
11343;BME280;5726;42.160;24.746;2023-05-20T05:02:14;99782.09;;;19.49;89.81
11343;BME280;5726;42.160;24.746;2023-05-20T05:04:39;99792.88;;;19.57;87.63
11343;BME280;5726;42.160;24.746;2023-05-20T05:07:05;99792.50;;;20.18;84.70
11343;BME280;5726;42.160;24.746;2023-05-20T05:09:30;99786.75;;;20.62;81.96
11343;BME280;5726;42.160;24.746;2023-05-20T05:11:56;99783.34;;;20.65;81.81
11343;BME280;5726;42.160;24.746;2023-05-20T05:14:21;99788.34;;;20.75;82.04
11343;BME280;5726;42.160;24.746;2023-05-20T05:16:48;99786.91;;;21.08;80.51
11343;BME280;5726;42.160;24.746;2023-05-20T05:19:13;99788.38;;;21.06;80.26
11343;BME280;5726;42.160;24.746;2023-05-20T05:21:39;99777.78;;;21.47;78.14
11343;BME280;5726;42.160;24.746;2023-05-20T05:24:04;99788.53;;;21.55;77.60
11343;BME280;5726;42.160;24.746;2023-05-20T05:26:30;99788.97;;;21.57;76.45
11343;BME280;5726;42.160;24.746;2023-05-20T05:28:55;99784.63;;;21.71;75.66
11343;BME280;5726;42.160;24.746;2023-05-20T05:31:21;99785.63;;;21.98;74.99
11343;BME280;5726;42.160;24.746;2023-05-20T05:33:46;99803.03;;;22.24;74.74
11343;BME280;5726;42.160;24.746;2023-05-20T05:36:12;99798.16;;;22.70;73.47
11343;BME280;5726;42.160;24.746;2023-05-20T05:38:37;99791.22;;;23.14;71.81
11343;BME280;5726;42.160;24.746;2023-05-20T05:41:02;99787.09;;;23.46;71.58
11343;BME280;5726;42.160;24.746;2023-05-20T05:43:28;99788.91;;;23.38;70.71
11343;BME280;5726;42.160;24.746;2023-05-20T05:45:53;99788.31;;;23.70;70.67
11343;BME280;5726;42.160;24.746;2023-05-20T05:48:20;99787.59;;;24.02;68.42
11343;BME280;5726;42.160;24.746;2023-05-20T05:50:46;99784.34;;;24.19;69.10
11343;BME280;5726;42.160;24.746;2023-05-20T05:53:11;99782.09;;;23.73;70.11
11343;BME280;5726;42.160;24.746;2023-05-20T05:55:37;99779.25;;;23.66;71.73
11343;BME280;5726;42.160;24.746;2023-05-20T05:58:02;99775.75;;;23.95;70.29
11343;BME280;5726;42.160;24.746;2023-05-20T06:00:28;99772.53;;;24.15;70.01
11343;BME280;5726;42.160;24.746;2023-05-20T06:02:53;99765.44;;;24.11;70.83
11343;BME280;5726;42.160;24.746;2023-05-20T06:05:18;99774.81;;;24.36;69.72
11343;BME280;5726;42.160;24.746;2023-05-20T06:07:44;99772.56;;;23.90;71.93
11343;BME280;5726;42.160;24.746;2023-05-20T06:10:09;99772.94;;;24.17;71.52
11343;BME280;5726;42.160;24.746;2023-05-20T06:12:35;99761.41;;;24.63;69.31
11343;BME280;5726;42.160;24.746;2023-05-20T06:15:00;99770.69;;;24.85;68.70
11343;BME280;5726;42.160;24.746;2023-05-20T06:17:26;99771.50;;;24.89;66.84
11343;BME280;5726;42.160;24.746;2023-05-20T06:19:51;99774.94;;;25.15;68.37
11343;BME280;5726;42.160;24.746;2023-05-20T06:22:17;99764.91;;;25.29;66.52
11343;BME280;5726;42.160;24.746;2023-05-20T06:24:42;99771.69;;;25.02;65.54
11343;BME280;5726;42.160;24.746;2023-05-20T06:27:07;99766.81;;;24.89;65.82
11343;BME280;5726;42.160;24.746;2023-05-20T06:29:33;99774.84;;;25.04;65.86
11343;BME280;5726;42.160;24.746;2023-05-20T06:31:58;99763.66;;;24.87;65.49
11343;BME280;5726;42.160;24.746;2023-05-20T06:34:24;99765.31;;;25.35;64.19
11343;BME280;5726;42.160;24.746;2023-05-20T06:36:49;99765.03;;;25.47;63.80
11343;BME280;5726;42.160;24.746;2023-05-20T06:39:15;99768.81;;;25.32;63.53
11343;BME280;5726;42.160;24.746;2023-05-20T06:41:40;99758.31;;;25.44;63.60
11343;BME280;5726;42.160;24.746;2023-05-20T06:44:06;99758.41;;;25.54;62.94
11343;BME280;5726;42.160;24.746;2023-05-20T06:46:32;99752.84;;;25.98;61.25
11343;BME280;5726;42.160;24.746;2023-05-20T06:48:58;99743.91;;;25.54;59.77
11343;BME280;5726;42.160;24.746;2023-05-20T06:51:23;99751.38;;;25.53;60.23
11343;BME280;5726;42.160;24.746;2023-05-20T06:53:49;99751.59;;;25.35;62.01
11343;BME280;5726;42.160;24.746;2023-05-20T06:56:14;99758.66;;;25.36;61.79
11343;BME280;5726;42.160;24.746;2023-05-20T06:58:39;99756.88;;;25.57;61.27
11343;BME280;5726;42.160;24.746;2023-05-20T07:01:05;99748.03;;;25.81;61.05
11343;BME280;5726;42.160;24.746;2023-05-20T07:03:30;99755.16;;;25.89;59.53
11343;BME280;5726;42.160;24.746;2023-05-20T07:05:56;99740.94;;;25.76;58.69
11343;BME280;5726;42.160;24.746;2023-05-20T07:08:21;99749.38;;;25.50;58.96
11343;BME280;5726;42.160;24.746;2023-05-20T07:10:47;99761.06;;;25.41;60.09
11343;BME280;5726;42.160;24.746;2023-05-20T07:13:12;99762.22;;;25.40;60.21
11343;BME280;5726;42.160;24.746;2023-05-20T07:15:38;99761.72;;;25.74;60.92
11343;BME280;5726;42.160;24.746;2023-05-20T07:18:03;99763.91;;;26.08;57.68
11343;BME280;5726;42.160;24.746;2023-05-20T07:20:28;99771.97;;;26.41;57.59
11343;BME280;5726;42.160;24.746;2023-05-20T07:22:54;99764.25;;;26.77;56.78
11343;BME280;5726;42.160;24.746;2023-05-20T07:25:19;99773.63;;;26.62;55.97
11343;BME280;5726;42.160;24.746;2023-05-20T07:27:45;99758.84;;;27.05;54.80
11343;BME280;5726;42.160;24.746;2023-05-20T07:30:10;99769.91;;;27.46;54.10
11343;BME280;5726;42.160;24.746;2023-05-20T07:32:36;99766.78;;;27.51;53.33
11343;BME280;5726;42.160;24.746;2023-05-20T07:35:01;99768.75;;;27.54;53.28
11343;BME280;5726;42.160;24.746;2023-05-20T07:37:27;99780.03;;;26.94;54.08
11343;BME280;5726;42.160;24.746;2023-05-20T07:39:52;99782.34;;;26.85;55.15
11343;BME280;5726;42.160;24.746;2023-05-20T07:42:18;99774.97;;;27.24;54.56
11343;BME280;5726;42.160;24.746;2023-05-20T07:44:43;99776.63;;;27.52;54.60
11343;BME280;5726;42.160;24.746;2023-05-20T07:47:09;99765.59;;;27.59;55.70
11343;BME280;5726;42.160;24.746;2023-05-20T07:49:34;99767.56;;;27.69;54.35
11343;BME280;5726;42.160;24.746;2023-05-20T07:52:00;99764.38;;;27.33;52.10
11343;BME280;5726;42.160;24.746;2023-05-20T07:54:25;99772.22;;;26.96;53.44
11343;BME280;5726;42.160;24.746;2023-05-20T07:56:51;99771.44;;;26.99;53.84
11343;BME280;5726;42.160;24.746;2023-05-20T07:59:17;99774.47;;;26.84;54.23
11343;BME280;5726;42.160;24.746;2023-05-20T08:01:42;99758.84;;;27.22;53.74
11343;BME280;5726;42.160;24.746;2023-05-20T08:04:08;99767.16;;;27.46;52.85
11343;BME280;5726;42.160;24.746;2023-05-20T08:06:33;99750.63;;;27.71;52.82
11343;BME280;5726;42.160;24.746;2023-05-20T08:09:00;99744.69;;;27.93;50.95
11343;BME280;5726;42.160;24.746;2023-05-20T08:11:26;99750.56;;;28.02;51.35
11343;BME280;5726;42.160;24.746;2023-05-20T08:13:52;99760.44;;;28.13;48.98
11343;BME280;5726;42.160;24.746;2023-05-20T08:16:17;99760.41;;;28.17;47.59
11343;BME280;5726;42.160;24.746;2023-05-20T08:18:43;99761.19;;;28.07;48.27
11343;BME280;5726;42.160;24.746;2023-05-20T08:21:08;99762.72;;;28.36;48.92
11343;BME280;5726;42.160;24.746;2023-05-20T08:23:35;99762.44;;;27.78;49.32
11343;BME280;5726;42.160;24.746;2023-05-20T08:26:01;99750.63;;;27.64;49.63
11343;BME280;5726;42.160;24.746;2023-05-20T08:28:28;99752.59;;;27.67;48.81
11343;BME280;5726;42.160;24.746;2023-05-20T08:30:53;99749.44;;;27.72;48.01
11343;BME280;5726;42.160;24.746;2023-05-20T08:33:19;99741.16;;;27.75;47.99
11343;BME280;5726;42.160;24.746;2023-05-20T08:35:46;99738.00;;;27.70;48.64
11343;BME280;5726;42.160;24.746;2023-05-20T08:38:12;99741.09;;;27.99;48.35
11343;BME280;5726;42.160;24.746;2023-05-20T08:40:37;99743.09;;;27.99;47.79
11343;BME280;5726;42.160;24.746;2023-05-20T08:43:03;99742.31;;;27.95;47.58
11343;BME280;5726;42.160;24.746;2023-05-20T08:45:31;99743.53;;;27.70;47.67
11343;BME280;5726;42.160;24.746;2023-05-20T08:47:57;99752.59;;;27.53;49.03
11343;BME280;5726;42.160;24.746;2023-05-20T08:50:22;99743.53;;;27.45;49.22
11343;BME280;5726;42.160;24.746;2023-05-20T08:52:48;99747.09;;;27.49;49.55
11343;BME280;5726;42.160;24.746;2023-05-20T08:55:17;99747.50;;;27.58;50.11
11343;BME280;5726;42.160;24.746;2023-05-20T08:57:48;99745.88;;;27.02;51.09
11343;BME280;5726;42.160;24.746;2023-05-20T09:00:14;99732.09;;;27.05;51.06
11343;BME280;5726;42.160;24.746;2023-05-20T09:02:42;99740.81;;;27.52;52.48
11343;BME280;5726;42.160;24.746;2023-05-20T09:05:09;99747.09;;;27.56;50.83
11343;BME280;5726;42.160;24.746;2023-05-20T09:07:35;99743.13;;;27.16;50.91
11343;BME280;5726;42.160;24.746;2023-05-20T09:10:01;99752.47;;;26.80;52.23
11343;BME280;5726;42.160;24.746;2023-05-20T09:12:27;99736.28;;;26.61;52.91
11343;BME280;5726;42.160;24.746;2023-05-20T09:14:52;99746.09;;;26.52;52.78
11343;BME280;5726;42.160;24.746;2023-05-20T09:17:17;99741.81;;;26.68;52.93
11343;BME280;5726;42.160;24.746;2023-05-20T09:19:43;99742.06;;;26.29;53.49
11343;BME280;5726;42.160;24.746;2023-05-20T09:22:08;99739.78;;;26.45;53.55
11343;BME280;5726;42.160;24.746;2023-05-20T09:24:34;99732.28;;;26.38;52.89
11343;BME280;5726;42.160;24.746;2023-05-20T09:26:59;99739.41;;;25.82;54.48
11343;BME280;5726;42.160;24.746;2023-05-20T09:29:25;99732.41;;;25.92;53.87
11343;BME280;5726;42.160;24.746;2023-05-20T09:31:51;99737.75;;;25.67;54.81
11343;BME280;5726;42.160;24.746;2023-05-20T09:34:19;99741.63;;;25.63;54.82
11343;BME280;5726;42.160;24.746;2023-05-20T09:36:48;99735.13;;;25.35;56.42
11343;BME280;5726;42.160;24.746;2023-05-20T09:39:16;99740.00;;;25.58;56.10
11343;BME280;5726;42.160;24.746;2023-05-20T09:44:16;99738.91;;;25.66;57.20
11343;BME280;5726;42.160;24.746;2023-05-20T09:46:43;99728.47;;;25.89;56.80
11343;BME280;5726;42.160;24.746;2023-05-20T09:49:10;99723.63;;;25.69;57.24
11343;BME280;5726;42.160;24.746;2023-05-20T09:51:37;99715.38;;;25.65;58.28
11343;BME280;5726;42.160;24.746;2023-05-20T09:54:05;99715.91;;;25.38;58.00
11343;BME280;5726;42.160;24.746;2023-05-20T09:56:33;99705.47;;;25.57;56.67
11343;BME280;5726;42.160;24.746;2023-05-20T09:58:59;99711.09;;;25.71;55.29
11343;BME280;5726;42.160;24.746;2023-05-20T10:01:26;99719.69;;;25.66;55.22
11343;BME280;5726;42.160;24.746;2023-05-20T10:03:52;99724.19;;;25.42;56.60
11343;BME280;5726;42.160;24.746;2023-05-20T10:12:47;99711.88;;;24.82;58.47
11343;BME280;5726;42.160;24.746;2023-05-20T10:15:58;99710.50;;;24.62;59.44
11343;BME280;5726;42.160;24.746;2023-05-20T10:21:14;99712.53;;;24.72;61.08
11343;BME280;5726;42.160;24.746;2023-05-20T10:23:41;99705.34;;;24.57;60.90
11343;BME280;5726;42.160;24.746;2023-05-20T10:26:06;99717.81;;;24.52;56.31
11343;BME280;5726;42.160;24.746;2023-05-20T10:28:37;99715.81;;;24.49;54.48
11343;BME280;5726;42.160;24.746;2023-05-20T10:31:42;99710.31;;;24.49;54.80
11343;BME280;5726;42.160;24.746;2023-05-20T10:34:17;99706.69;;;24.38;54.16
11343;BME280;5726;42.160;24.746;2023-05-20T10:39:15;99719.97;;;24.68;55.05
11343;BME280;5726;42.160;24.746;2023-05-20T10:41:41;99693.59;;;24.60;55.69
11343;BME280;5726;42.160;24.746;2023-05-20T10:44:06;99686.13;;;24.57;53.91
11343;BME280;5726;42.160;24.746;2023-05-20T10:46:33;99718.63;;;24.55;53.44
11343;BME280;5726;42.160;24.746;2023-05-20T10:49:01;99729.44;;;24.42;54.57
11343;BME280;5726;42.160;24.746;2023-05-20T10:51:28;99737.81;;;24.26;56.98
11343;BME280;5726;42.160;24.746;2023-05-20T10:53:54;99734.25;;;23.93;58.57
11343;BME280;5726;42.160;24.746;2023-05-20T10:56:24;99721.69;;;23.89;58.42
11343;BME280;5726;42.160;24.746;2023-05-20T10:58:53;99716.16;;;23.85;57.92
11343;BME280;5726;42.160;24.746;2023-05-20T11:01:25;99719.84;;;23.70;59.39
11343;BME280;5726;42.160;24.746;2023-05-20T11:03:53;99715.03;;;23.64;60.33
11343;BME280;5726;42.160;24.746;2023-05-20T11:06:18;99701.94;;;23.76;60.08
11343;BME280;5726;42.160;24.746;2023-05-20T11:08:44;99700.13;;;23.87;60.63
11343;BME280;5726;42.160;24.746;2023-05-20T11:11:11;99696.06;;;24.07;58.42
11343;BME280;5726;42.160;24.746;2023-05-20T11:13:37;99702.47;;;23.85;58.93
11343;BME280;5726;42.160;24.746;2023-05-20T11:16:02;99710.47;;;23.71;59.39
11343;BME280;5726;42.160;24.746;2023-05-20T11:18:29;99706.47;;;23.65;60.43
11343;BME280;5726;42.160;24.746;2023-05-20T11:20:58;99710.56;;;23.78;59.93
11343;BME280;5726;42.160;24.746;2023-05-20T11:23:25;99704.63;;;24.02;59.83
11343;BME280;5726;42.160;24.746;2023-05-20T11:25:52;99698.91;;;24.14;58.85
11343;BME280;5726;42.160;24.746;2023-05-20T11:28:19;99700.34;;;24.34;58.38
11343;BME280;5726;42.160;24.746;2023-05-20T11:30:48;99694.56;;;24.09;55.77
11343;BME280;5726;42.160;24.746;2023-05-20T11:33:15;99700.41;;;24.08;56.97
11343;BME280;5726;42.160;24.746;2023-05-20T11:35:52;99699.28;;;24.12;58.05
11343;BME280;5726;42.160;24.746;2023-05-20T11:38:18;99685.47;;;24.02;57.51
11343;BME280;5726;42.160;24.746;2023-05-20T11:40:54;99674.75;;;24.23;55.70
11343;BME280;5726;42.160;24.746;2023-05-20T11:43:20;99680.88;;;24.13;56.52
11343;BME280;5726;42.160;24.746;2023-05-20T11:45:51;99688.75;;;24.14;54.43
11343;BME280;5726;42.160;24.746;2023-05-20T11:48:17;99685.59;;;24.12;55.37
11343;BME280;5726;42.160;24.746;2023-05-20T11:50:46;99681.19;;;24.04;54.43
11343;BME280;5726;42.160;24.746;2023-05-20T11:53:16;99693.78;;;24.09;56.57
11343;BME280;5726;42.160;24.746;2023-05-20T11:58:14;99690.44;;;23.93;55.22
11343;BME280;5726;42.160;24.746;2023-05-20T12:00:40;99693.03;;;24.12;56.04
11343;BME280;5726;42.160;24.746;2023-05-20T12:03:06;99679.75;;;23.85;56.47
11343;BME280;5726;42.160;24.746;2023-05-20T12:05:31;99683.88;;;24.01;54.75
11343;BME280;5726;42.160;24.746;2023-05-20T12:07:56;99673.09;;;23.86;54.62
11343;BME280;5726;42.160;24.746;2023-05-20T12:10:22;99677.63;;;24.04;53.37
11343;BME280;5726;42.160;24.746;2023-05-20T12:12:47;99669.03;;;24.02;54.56
11343;BME280;5726;42.160;24.746;2023-05-20T12:15:13;99678.09;;;24.06;54.10
11343;BME280;5726;42.160;24.746;2023-05-20T12:17:50;99675.38;;;24.09;54.32
11343;BME280;5726;42.160;24.746;2023-05-20T12:20:17;99659.59;;;24.32;53.81
11343;BME280;5726;42.160;24.746;2023-05-20T12:22:44;99661.88;;;24.27;54.30
11343;BME280;5726;42.160;24.746;2023-05-20T12:25:14;99661.47;;;24.57;54.16
11343;BME280;5726;42.160;24.746;2023-05-20T12:27:40;99662.28;;;24.61;54.15
11343;BME280;5726;42.160;24.746;2023-05-20T12:30:07;99654.34;;;24.53;54.19
11343;BME280;5726;42.160;24.746;2023-05-20T12:32:35;99660.78;;;24.67;54.45
11343;BME280;5726;42.160;24.746;2023-05-20T12:35:00;99657.75;;;24.79;54.12
11343;BME280;5726;42.160;24.746;2023-05-20T12:37:26;99648.84;;;24.50;54.10
11343;BME280;5726;42.160;24.746;2023-05-20T12:39:51;99652.19;;;24.33;52.78
11343;BME280;5726;42.160;24.746;2023-05-20T12:42:17;99642.34;;;24.32;53.66
11343;BME280;5726;42.160;24.746;2023-05-20T12:44:42;99638.03;;;24.31;53.12
11343;BME280;5726;42.160;24.746;2023-05-20T12:47:08;99641.53;;;24.28;54.12
11343;BME280;5726;42.160;24.746;2023-05-20T12:49:33;99629.19;;;24.11;55.73
11343;BME280;5726;42.160;24.746;2023-05-20T12:51:59;99629.78;;;24.27;55.94
11343;BME280;5726;42.160;24.746;2023-05-20T12:54:24;99624.31;;;24.31;55.82
11343;BME280;5726;42.160;24.746;2023-05-20T12:56:55;99619.09;;;24.52;55.63
11343;BME280;5726;42.160;24.746;2023-05-20T12:59:21;99611.22;;;24.47;55.84
11343;BME280;5726;42.160;24.746;2023-05-20T13:01:47;99606.63;;;24.21;56.27
11343;BME280;5726;42.160;24.746;2023-05-20T13:04:12;99603.38;;;24.45;56.13
11343;BME280;5726;42.160;24.746;2023-05-20T13:06:38;99608.88;;;24.49;55.88
11343;BME280;5726;42.160;24.746;2023-05-20T13:09:03;99597.59;;;24.57;56.70
11343;BME280;5726;42.160;24.746;2023-05-20T13:11:28;99597.59;;;24.57;55.32